Time;durP1;ratioP1;P1;durP2;ratioP2;P2;SDS_P1;SDS_P2;PMS_P1;PMS_P2;Temp;Humidity;BMP_temperature;BMP_pressure;BME280_temperature;BME280_humidity;BME280_pressure;Samples;Min_cycle;Max_cycle;Signal;HPM_P1;HPM_P2
2023/08/06 00:02:03;;;;;;;3.78;2.85;;;29.50;53.90;;;;;;4992827;28;20046;-68
2023/08/06 00:04:29;;;;;;;3.22;2.28;;;29.30;53.90;;;;;;5006780;28;20046;-68
2023/08/06 00:06:56;;;;;;;4.90;4.40;;;29.50;53.90;;;;;;4992578;28;20117;-66
2023/08/06 00:09:22;;;;;;;4.10;3.65;;;29.40;54.00;;;;;;4992373;28;20054;-67
2023/08/06 00:11:48;;;;;;;3.53;2.40;;;29.50;54.00;;;;;;4992455;28;20129;-67
2023/08/06 00:14:17;;;;;;;2.88;2.17;;;29.40;54.00;;;;;;4992394;28;20038;-68
2023/08/06 00:16:45;;;;;;;2.33;1.80;;;29.40;54.00;;;;;;4992362;28;20109;-67
2023/08/06 00:19:11;;;;;;;1.77;1.67;;;29.50;54.00;;;;;;4992366;28;20037;-68
2023/08/06 00:21:37;;;;;;;2.90;2.35;;;29.30;54.00;;;;;;4992548;28;20443;-67
2023/08/06 00:24:03;;;;;;;2.70;2.30;;;29.50;54.00;;;;;;4992331;28;20474;-67
2023/08/06 00:26:29;;;;;;;2.78;2.22;;;29.40;54.00;;;;;;4992304;28;20049;-68
2023/08/06 00:28:55;;;;;;;3.17;1.90;;;29.50;54.10;;;;;;4992168;28;20034;-68
2023/08/06 00:31:21;;;;;;;2.30;2.10;;;29.50;54.10;;;;;;4992195;28;20031;-66
2023/08/06 00:33:47;;;;;;;2.60;1.98;;;29.40;54.00;;;;;;4992313;28;20058;-68
2023/08/06 00:36:13;;;;;;;2.10;1.95;;;29.50;54.10;;;;;;5022504;28;20121;-68
2023/08/06 00:38:39;;;;;;;5.70;4.30;;;29.40;54.10;;;;;;4990777;28;20431;-68
2023/08/06 00:41:05;;;;;;;5.90;4.05;;;29.50;54.10;;;;;;5007137;28;20096;-68
2023/08/06 00:43:31;;;;;;;7.30;4.80;;;29.50;54.10;;;;;;4990701;28;20046;-68
2023/08/06 00:45:58;;;;;;;10.50;4.93;;;29.30;54.00;;;;;;5007113;28;20038;-68
2023/08/06 00:48:24;;;;;;;5.65;5.15;;;29.40;54.00;;;;;;4991915;28;20030;-68
2023/08/06 00:50:50;;;;;;;5.28;4.78;;;29.40;54.10;;;;;;4992125;28;20537;-68
2023/08/06 00:53:16;;;;;;;7.82;4.40;;;29.40;54.00;;;;;;4992056;28;20066;-68
2023/08/06 00:55:45;;;;;;;5.93;4.30;;;29.40;54.20;;;;;;4991870;28;20107;-68
2023/08/06 00:58:12;;;;;;;7.10;4.72;;;29.40;54.30;;;;;;4991540;28;20045;-68
2023/08/06 01:00:39;;;;;;;7.35;4.95;;;29.40;54.30;;;;;;5007046;28;20084;-68
2023/08/06 01:03:05;;;;;;;4.38;2.90;;;29.40;54.40;;;;;;4991707;28;20035;-67
2023/08/06 01:05:31;;;;;;;7.88;4.90;;;29.40;54.40;;;;;;4991819;28;20038;-67
2023/08/06 01:08:13;;;;;;;8.93;4.47;;;29.40;54.40;;;;;;4992675;28;20030;-68
2023/08/06 01:11:07;;;;;;;5.20;4.47;;;29.50;54.40;;;;;;4997293;28;20041;-67
2023/08/06 01:13:41;;;;;;;7.93;4.78;;;29.40;54.40;;;;;;5013478;28;20038;-67
2023/08/06 01:16:10;;;;;;;3.63;2.33;;;29.40;54.40;;;;;;4998265;28;20038;-68
2023/08/06 01:18:38;;;;;;;4.63;2.63;;;29.30;54.50;;;;;;4998024;28;20077;-67
2023/08/06 01:21:05;;;;;;;4.05;2.00;;;29.30;54.50;;;;;;5013436;28;20030;-68
2023/08/06 01:23:31;;;;;;;3.00;2.30;;;29.40;54.50;;;;;;5028698;28;20129;-68
2023/08/06 01:26:29;;;;;;;4.70;2.80;;;29.60;54.50;;;;;;4998366;28;20038;-67
2023/08/06 01:29:22;;;;;;;2.58;2.35;;;29.50;54.60;;;;;;4997949;28;20031;-67
2023/08/06 01:31:50;;;;;;;5.68;3.72;;;29.40;54.50;;;;;;4998367;28;20026;-68
2023/08/06 01:34:31;;;;;;;2.65;2.45;;;29.50;54.60;;;;;;5011940;28;20058;-68
2023/08/06 01:36:59;;;;;;;2.85;2.10;;;29.40;54.60;;;;;;4997917;28;20057;-68
2023/08/06 01:39:26;;;;;;;4.90;3.50;;;29.40;54.60;;;;;;4998032;28;20461;-68
2023/08/06 01:41:52;;;;;;;2.78;2.13;;;29.40;54.60;;;;;;5012871;28;20442;-68
2023/08/06 01:44:19;;;;;;;6.88;3.72;;;29.40;54.60;;;;;;4997918;28;20477;-67
2023/08/06 01:46:45;;;;;;;5.47;4.25;;;29.50;54.60;;;;;;4997767;28;20113;-68
2023/08/06 01:49:11;;;;;;;2.70;2.20;;;29.40;54.60;;;;;;5013162;28;20030;-68
2023/08/06 01:51:37;;;;;;;4.93;3.15;;;29.30;54.50;;;;;;4997863;28;20038;-68
2023/08/06 01:54:03;;;;;;;2.63;2.42;;;29.40;54.50;;;;;;4997912;28;20042;-68
2023/08/06 01:56:29;;;;;;;2.78;2.40;;;29.30;54.70;;;;;;5013148;28;20065;-68
2023/08/06 01:58:55;;;;;;;2.40;2.20;;;29.50;54.70;;;;;;4996421;28;20057;-68
2023/08/06 02:01:22;;;;;;;9.90;4.43;;;29.30;54.70;;;;;;5012991;28;20089;-67
2023/08/06 02:03:48;;;;;;;5.30;2.85;;;29.50;54.70;;;;;;4997700;28;20137;-68
2023/08/06 02:06:14;;;;;;;3.35;2.40;;;29.30;54.80;;;;;;5012916;28;20333;-66
2023/08/06 02:08:40;;;;;;;3.00;2.70;;;29.50;54.80;;;;;;4997638;28;20085;-67
2023/08/06 02:11:06;;;;;;;2.75;2.30;;;29.50;54.80;;;;;;4997867;28;20042;-67
2023/08/06 02:13:34;;;;;;;3.13;2.08;;;29.50;54.80;;;;;;5012732;28;20109;-68
2023/08/06 02:16:00;;;;;;;2.22;2.03;;;29.40;54.80;;;;;;5012775;28;20026;-68
2023/08/06 02:18:26;;;;;;;3.72;2.08;;;29.30;54.80;;;;;;5012683;28;20042;-68
2023/08/06 02:20:59;;;;;;;2.53;2.13;;;29.40;54.80;;;;;;5009009;28;20026;-68
2023/08/06 02:23:26;;;;;;;2.38;2.17;;;29.40;54.90;;;;;;4994436;28;20052;-68
2023/08/06 02:26:03;;;;;;;4.45;2.63;;;29.30;54.90;;;;;;5009673;28;20577;-68
2023/08/06 02:28:32;;;;;;;3.90;3.50;;;29.40;54.90;;;;;;4994363;28;20054;-68
2023/08/06 02:30:59;;;;;;;3.05;2.75;;;29.50;54.90;;;;;;4993198;28;20755;-67
2023/08/06 02:33:25;;;;;;;2.55;1.90;;;29.30;54.90;;;;;;4994826;28;20046;-68
2023/08/06 02:35:51;;;;;;;5.80;4.25;;;29.50;54.90;;;;;;4992922;28;20121;-68
2023/08/06 02:38:17;;;;;;;5.68;4.18;;;29.50;54.90;;;;;;4994460;28;20458;-67
2023/08/06 02:40:45;;;;;;;6.60;4.47;;;29.40;54.90;;;;;;4994463;28;20038;-68
2023/08/06 02:43:11;;;;;;;2.30;2.10;;;29.40;54.90;;;;;;5009170;28;20516;-68
2023/08/06 02:45:38;;;;;;;4.53;4.13;;;29.30;54.90;;;;;;4994200;28;20549;-68
2023/08/06 02:48:04;;;;;;;3.05;2.85;;;29.40;54.90;;;;;;4993932;28;20039;-67
2023/08/06 02:50:40;;;;;;;2.35;2.13;;;29.40;54.90;;;;;;4994116;28;20109;-67
2023/08/06 02:53:07;;;;;;;3.60;3.15;;;29.30;54.90;;;;;;5009165;28;20030;-68
2023/08/06 02:55:34;;;;;;;4.07;3.50;;;29.40;54.80;;;;;;4993872;28;20390;-68
2023/08/06 02:58:01;;;;;;;4.65;3.65;;;29.30;54.90;;;;;;4993862;28;20075;-68
2023/08/06 03:00:32;;;;;;;4.65;3.80;;;29.40;55.00;;;;;;5023171;28;20058;-68
2023/08/06 03:02:59;;;;;;;4.50;3.40;;;29.30;55.00;;;;;;5008868;28;20034;-68
2023/08/06 03:05:33;;;;;;;5.90;4.50;;;29.20;55.00;;;;;;5008986;28;20065;-68
2023/08/06 03:08:00;;;;;;;9.55;4.55;;;29.20;55.00;;;;;;5008956;28;20056;-67
2023/08/06 03:10:28;;;;;;;2.53;2.33;;;29.40;55.00;;;;;;5009030;28;20483;-67
2023/08/06 03:12:57;;;;;;;3.38;2.78;;;29.40;55.00;;;;;;5008635;28;20034;-68
2023/08/06 03:15:23;;;;;;;4.72;3.00;;;29.40;55.10;;;;;;4993661;28;20029;-67
2023/08/06 03:17:51;;;;;;;3.05;2.60;;;29.40;55.10;;;;;;5008343;28;20033;-68
2023/08/06 03:20:20;;;;;;;3.63;2.85;;;29.30;55.10;;;;;;4992602;28;20488;-68
2023/08/06 03:22:46;;;;;;;3.28;3.08;;;29.30;55.10;;;;;;4993430;28;20117;-68
2023/08/06 03:25:12;;;;;;;4.70;3.05;;;29.40;55.10;;;;;;5008625;28;20038;-68
2023/08/06 03:27:41;;;;;;;2.75;2.55;;;29.30;55.10;;;;;;5008203;28;20157;-68
2023/08/06 03:30:08;;;;;;;2.75;2.40;;;29.40;55.10;;;;;;5008465;28;20649;-67
2023/08/06 03:32:34;;;;;;;2.50;2.10;;;29.40;55.10;;;;;;4992759;28;20046;-66
2023/08/06 03:35:00;;;;;;;2.53;2.13;;;29.40;55.20;;;;;;5008497;28;20493;-68
2023/08/06 03:37:29;;;;;;;3.10;2.58;;;29.30;55.10;;;;;;4991994;28;20041;-67
2023/08/06 03:39:55;;;;;;;5.32;3.28;;;29.40;55.10;;;;;;5008252;28;20113;-68
2023/08/06 03:42:22;;;;;;;2.35;2.15;;;29.40;55.10;;;;;;5023558;28;20097;-68
2023/08/06 03:44:48;;;;;;;2.65;2.45;;;29.40;55.10;;;;;;5008126;28;20073;-68
2023/08/06 03:47:14;;;;;;;2.60;2.28;;;29.40;55.10;;;;;;4991935;28;20081;-68
2023/08/06 03:49:40;;;;;;;2.60;2.40;;;29.20;55.10;;;;;;4992977;28;20038;-67
2023/08/06 03:52:07;;;;;;;4.32;3.08;;;29.30;55.10;;;;;;5008051;28;20553;-68
2023/08/06 03:54:33;;;;;;;2.65;2.35;;;29.30;55.20;;;;;;5007842;28;20054;-68
2023/08/06 03:56:59;;;;;;;2.55;2.35;;;29.30;55.20;;;;;;4992840;28;20030;-66
2023/08/06 03:59:25;;;;;;;3.17;2.38;;;29.30;55.20;;;;;;5007835;28;20041;-66
2023/08/06 04:01:51;;;;;;;3.45;3.15;;;29.20;55.20;;;;;;4991670;28;20070;-66
2023/08/06 04:04:17;;;;;;;4.47;3.47;;;29.20;54.90;;;;;;5007715;28;20537;-66
2023/08/06 04:06:44;;;;;;;5.75;4.32;;;29.30;54.70;;;;;;5007560;28;20097;-65
2023/08/06 04:09:10;;;;;;;5.45;4.90;;;29.20;54.50;;;;;;4991441;28;20038;-66
2023/08/06 04:11:36;;;;;;;7.25;5.05;;;29.20;54.60;;;;;;4991165;28;20042;-66
2023/08/06 04:14:02;;;;;;;5.53;4.53;;;29.20;54.20;;;;;;4991263;28;20092;-66
2023/08/06 04:16:30;;;;;;;6.65;5.18;;;29.00;54.00;;;;;;4991176;28;20034;-65
2023/08/06 04:18:56;;;;;;;5.57;4.85;;;29.10;54.00;;;;;;4991408;28;20402;-66
2023/08/06 04:21:22;;;;;;;5.68;5.20;;;29.00;54.00;;;;;;4992508;28;20553;-67
2023/08/06 04:23:48;;;;;;;7.72;5.72;;;29.10;54.40;;;;;;5007325;28;20063;-65
2023/08/06 04:26:15;;;;;;;6.63;5.47;;;29.20;56.90;;;;;;5007285;28;20042;-65
2023/08/06 04:28:41;;;;;;;15.50;6.28;;;29.80;58.30;;;;;;4991113;28;20073;-66
2023/08/06 04:31:08;;;;;;;10.60;6.88;;;30.40;59.30;;;;;;5007358;28;20053;-66
2023/08/06 04:33:35;;;;;;;8.27;6.65;;;30.40;60.00;;;;;;4990767;28;20079;-66
2023/08/06 04:36:06;;;;;;;11.45;7.25;;;30.30;57.00;;;;;;4992114;28;20089;-67
2023/08/06 04:38:33;;;;;;;7.10;6.28;;;30.10;55.80;;;;;;5048634;28;20048;-68
2023/08/06 04:41:01;;;;;;;9.77;6.75;;;30.10;55.90;;;;;;5048916;28;20044;-66
2023/08/06 04:43:27;;;;;;;10.10;6.28;;;30.00;55.90;;;;;;5031466;28;20057;-67
2023/08/06 04:45:54;;;;;;;8.57;5.55;;;29.90;55.60;;;;;;5032119;28;20041;-67
2023/08/06 04:48:21;;;;;;;7.60;5.97;;;29.90;55.90;;;;;;5048677;28;20036;-67
2023/08/06 04:50:49;;;;;;;8.70;5.30;;;29.90;56.10;;;;;;5048929;28;20037;-67
2023/08/06 04:53:16;;;;;;;10.77;5.38;;;29.90;56.20;;;;;;5048660;28;20401;-67
2023/08/06 04:55:42;;;;;;;11.88;5.20;;;29.90;56.30;;;;;;5048390;28;20037;-68
2023/08/06 04:58:12;;;;;;;8.13;5.00;;;29.80;56.50;;;;;;4999188;28;20072;-68
2023/08/06 05:00:38;;;;;;;8.68;5.78;;;29.80;56.80;;;;;;5048695;28;20040;-67
2023/08/06 05:03:06;;;;;;;11.32;5.68;;;29.90;57.30;;;;;;5048606;28;20538;-66
2023/08/06 05:05:32;;;;;;;8.15;5.43;;;29.70;57.30;;;;;;5048255;28;20514;-66
2023/08/06 05:07:58;;;;;;;7.10;4.97;;;29.90;57.30;;;;;;5048535;28;20055;-66
2023/08/06 05:10:26;;;;;;;7.38;5.47;;;29.80;56.70;;;;;;4999817;28;20053;-66
2023/08/06 05:12:52;;;;;;;8.75;5.03;;;29.80;55.80;;;;;;4991953;28;20470;-66
2023/08/06 05:15:18;;;;;;;6.57;5.38;;;29.80;55.40;;;;;;4991621;28;20054;-67
2023/08/06 05:17:44;;;;;;;7.13;5.50;;;29.70;55.00;;;;;;4991536;28;20038;-67
2023/08/06 05:20:11;;;;;;;6.65;4.72;;;30.00;55.80;;;;;;4991653;28;20040;-66
2023/08/06 05:22:37;;;;;;;5.97;5.20;;;30.00;55.30;;;;;;4991521;28;20042;-67
2023/08/06 05:25:04;;;;;;;10.30;5.68;;;29.90;54.80;;;;;;4991685;28;20035;-66
2023/08/06 05:27:30;;;;;;;5.32;4.90;;;29.90;54.60;;;;;;4991522;28;20390;-67
2023/08/06 05:29:56;;;;;;;9.05;4.82;;;30.00;55.70;;;;;;4991787;28;20042;-67
2023/08/06 05:32:22;;;;;;;6.75;4.60;;;30.00;55.50;;;;;;4991506;28;20502;-66
2023/08/06 05:34:49;;;;;;;6.82;5.50;;;30.00;55.30;;;;;;4991609;28;20030;-67
2023/08/06 05:37:15;;;;;;;6.32;5.65;;;29.90;54.90;;;;;;5006449;28;20033;-67
2023/08/06 05:39:41;;;;;;;6.45;5.65;;;29.90;54.60;;;;;;4991678;28;20038;-66
2023/08/06 05:42:07;;;;;;;6.13;5.20;;;30.00;55.40;;;;;;4991542;28;20046;-66
2023/08/06 05:44:33;;;;;;;9.27;6.00;;;30.00;55.10;;;;;;5005636;28;20063;-66
2023/08/06 05:46:59;;;;;;;12.23;8.30;;;30.10;55.20;;;;;;5021626;28;20042;-66
2023/08/06 05:49:25;;;;;;;6.05;5.32;;;30.10;55.90;;;;;;5006414;28;20049;-66
2023/08/06 05:51:53;;;;;;;11.05;7.53;;;30.00;56.10;;;;;;4991334;28;20026;-66
2023/08/06 05:54:19;;;;;;;21.65;14.27;;;30.20;55.90;;;;;;4992031;28;20052;-67
2023/08/06 05:56:45;;;;;;;18.08;13.35;;;30.10;57.20;;;;;;4991380;28;20438;-66
2023/08/06 05:59:11;;;;;;;12.63;7.95;;;30.20;55.90;;;;;;4985039;28;20442;-66
2023/08/06 06:01:37;;;;;;;8.13;7.03;;;30.20;57.30;;;;;;4975914;28;20035;-66
2023/08/06 06:04:03;;;;;;;7.38;5.90;;;30.20;57.00;;;;;;4991083;28;20153;-67
2023/08/06 06:06:30;;;;;;;5.72;4.93;;;30.30;56.60;;;;;;5008913;28;20137;-65
2023/08/06 06:08:56;;;;;;;6.05;5.32;;;30.20;56.20;;;;;;4995054;28;20117;-67
2023/08/06 06:11:22;;;;;;;5.95;5.28;;;30.30;55.90;;;;;;4994807;28;20042;-66
2023/08/06 06:13:50;;;;;;;6.57;5.18;;;30.10;56.10;;;;;;5025529;28;20038;-67
2023/08/06 06:16:17;;;;;;;7.03;5.45;;;30.20;56.20;;;;;;4977876;28;20117;-67
2023/08/06 06:18:43;;;;;;;5.82;5.22;;;30.20;56.30;;;;;;4974276;28;20133;-65
2023/08/06 06:21:13;;;;;;;5.18;4.68;;;30.20;56.30;;;;;;4975215;28;20445;-67
2023/08/06 06:23:39;;;;;;;6.63;5.55;;;30.20;55.10;;;;;;4975325;28;20031;-65
2023/08/06 06:26:05;;;;;;;4.85;3.80;;;30.20;55.00;;;;;;4975321;28;20371;-67
2023/08/06 06:28:40;;;;;;;5.93;3.65;;;30.30;54.60;;;;;;4975058;28;20042;-66
2023/08/06 06:31:06;;;;;;;5.40;4.85;;;30.20;54.60;;;;;;4974774;28;20050;-67
2023/08/06 06:33:32;;;;;;;4.85;3.72;;;30.20;53.60;;;;;;4975042;28;20414;-67
2023/08/06 06:35:58;;;;;;;3.42;3.13;;;30.10;53.50;;;;;;4974729;28;20053;-67
2023/08/06 06:38:24;;;;;;;6.50;4.28;;;30.10;53.80;;;;;;4974716;28;20043;-65
2023/08/06 06:40:56;;;;;;;4.07;3.50;;;30.10;53.90;;;;;;4974900;28;20094;-67
2023/08/06 06:43:23;;;;;;;4.20;3.80;;;30.30;53.90;;;;;;4974487;28;20047;-67
2023/08/06 06:46:01;;;;;;;8.38;3.95;;;30.10;53.90;;;;;;4974645;28;20083;-67
2023/08/06 06:48:29;;;;;;;5.30;4.28;;;30.20;54.00;;;;;;4957048;28;20031;-66
2023/08/06 06:50:56;;;;;;;3.90;3.60;;;30.20;54.30;;;;;;4978670;28;20038;-67
2023/08/06 06:53:28;;;;;;;5.78;3.10;;;30.30;54.40;;;;;;4993921;28;20069;-68
2023/08/06 06:56:04;;;;;;;4.13;3.17;;;30.20;54.00;;;;;;4994150;28;20581;-68
2023/08/06 06:58:32;;;;;;;4.57;3.95;;;30.20;54.00;;;;;;4993695;28;20130;-68
2023/08/06 07:00:58;;;;;;;5.03;3.95;;;30.20;53.80;;;;;;5004450;28;20043;-68
2023/08/06 07:03:24;;;;;;;5.00;3.15;;;30.20;53.80;;;;;;4976827;28;20109;-68
2023/08/06 07:05:50;;;;;;;4.93;3.97;;;30.20;53.70;;;;;;4973868;28;20395;-68
2023/08/06 07:08:17;;;;;;;4.05;3.67;;;30.40;53.70;;;;;;4974162;28;20027;-69
2023/08/06 07:10:43;;;;;;;5.40;3.60;;;30.30;53.70;;;;;;4991021;28;20539;-68
2023/08/06 07:13:10;;;;;;;3.97;3.40;;;30.10;53.60;;;;;;4993589;28;20043;-68
2023/08/06 07:15:36;;;;;;;4.05;2.92;;;30.20;53.80;;;;;;4992849;28;20042;-66
2023/08/06 07:18:02;;;;;;;3.85;3.08;;;30.10;53.30;;;;;;4993381;28;20042;-67
2023/08/06 07:20:32;;;;;;;3.42;3.08;;;30.10;53.30;;;;;;4993466;28;20030;-68
2023/08/06 07:22:59;;;;;;;9.65;3.67;;;30.10;53.50;;;;;;4992196;28;20486;-68
2023/08/06 07:25:25;;;;;;;3.75;3.28;;;30.10;53.50;;;;;;4984614;28;20035;-69
2023/08/06 07:27:54;;;;;;;3.70;3.38;;;30.30;53.60;;;;;;4987629;28;20026;-69
2023/08/06 07:30:19;;;;;;;4.65;4.00;;;30.20;53.60;;;;;;4974536;28;20475;-69
2023/08/06 07:32:46;;;;;;;5.75;3.60;;;30.10;53.60;;;;;;4974322;28;20098;-68
2023/08/06 07:35:14;;;;;;;4.13;3.55;;;30.10;53.60;;;;;;4973934;28;20085;-68
2023/08/06 07:37:40;;;;;;;4.65;2.92;;;30.30;53.50;;;;;;4972508;28;20117;-68
2023/08/06 07:40:07;;;;;;;5.07;3.35;;;30.20;53.20;;;;;;4973468;28;20031;-69
2023/08/06 07:42:33;;;;;;;3.40;3.10;;;30.10;52.80;;;;;;4973621;28;20041;-67
2023/08/06 07:45:00;;;;;;;6.97;3.08;;;30.10;52.40;;;;;;4973918;28;20046;-68
2023/08/06 07:47:26;;;;;;;3.47;3.17;;;30.20;51.90;;;;;;4973530;28;20069;-69
2023/08/06 07:49:52;;;;;;;4.32;3.15;;;29.90;50.90;;;;;;4973768;28;20093;-68
2023/08/06 07:52:18;;;;;;;3.63;3.05;;;30.10;51.30;;;;;;4973491;28;20054;-70
2023/08/06 07:54:44;;;;;;;3.33;3.03;;;30.00;51.00;;;;;;4973338;28;20027;-70
2023/08/06 07:57:11;;;;;;;3.38;2.83;;;29.90;50.00;;;;;;4973397;28;20034;-69
2023/08/06 07:59:37;;;;;;;3.33;2.58;;;30.00;50.20;;;;;;4973497;28;20089;-70
2023/08/06 08:02:04;;;;;;;3.53;3.22;;;29.90;49.70;;;;;;4973314;28;20458;-71
2023/08/06 08:04:30;;;;;;;4.45;2.90;;;30.00;50.50;;;;;;4973396;28;20046;-71
2023/08/06 08:06:56;;;;;;;4.43;3.65;;;30.00;50.50;;;;;;4973179;28;20114;-72
2023/08/06 08:09:22;;;;;;;3.63;2.78;;;30.00;50.60;;;;;;4973089;28;20122;-70
2023/08/06 08:11:48;;;;;;;4.18;3.78;;;30.00;50.80;;;;;;4973418;28;20468;-69
2023/08/06 08:14:14;;;;;;;3.53;3.20;;;30.00;51.10;;;;;;4973155;28;20035;-68
2023/08/06 08:16:41;;;;;;;5.25;3.00;;;29.90;49.90;;;;;;4973093;28;20035;-69
2023/08/06 08:19:07;;;;;;;4.15;3.28;;;29.90;49.40;;;;;;4972005;28;20407;-69
2023/08/06 08:21:33;;;;;;;3.10;2.78;;;29.90;48.80;;;;;;4973067;28;20031;-70
2023/08/06 08:24:00;;;;;;;4.68;3.25;;;30.00;48.90;;;;;;4972701;28;20484;-70
2023/08/06 08:26:27;;;;;;;3.17;2.88;;;29.80;47.90;;;;;;4973162;28;20035;-69
2023/08/06 08:28:54;;;;;;;3.20;2.92;;;29.80;48.00;;;;;;4987789;28;20069;-70
2023/08/06 08:31:20;;;;;;;3.50;3.20;;;29.90;47.80;;;;;;4987832;28;20118;-69
2023/08/06 08:33:46;;;;;;;4.43;4.03;;;29.80;47.60;;;;;;4987730;28;20049;-69
2023/08/06 08:36:12;;;;;;;4.00;2.80;;;30.00;47.70;;;;;;4972718;28;20031;-69
2023/08/06 08:38:41;;;;;;;4.30;3.05;;;29.90;47.10;;;;;;5002485;28;20046;-70
2023/08/06 08:41:10;;;;;;;2.90;2.65;;;30.20;48.90;;;;;;4973112;28;20062;-70
2023/08/06 08:43:36;;;;;;;4.20;3.45;;;30.50;49.90;;;;;;4972815;28;20085;-69
2023/08/06 08:46:06;;;;;;;3.40;3.10;;;30.30;49.70;;;;;;4972893;28;20779;-70
2023/08/06 08:48:32;;;;;;;4.45;3.80;;;30.30;49.10;;;;;;4970578;28;20031;-70
2023/08/06 08:50:59;;;;;;;3.45;2.55;;;30.20;50.30;;;;;;4972926;28;20027;-69
2023/08/06 08:53:27;;;;;;;7.70;3.22;;;30.30;49.40;;;;;;4992168;28;20029;-68
2023/08/06 08:55:55;;;;;;;4.90;3.28;;;30.30;49.40;;;;;;4991990;28;20042;-69
2023/08/06 08:58:21;;;;;;;3.63;3.33;;;30.30;48.70;;;;;;4991815;28;20026;-69
2023/08/06 09:00:50;;;;;;;6.47;2.97;;;30.30;48.20;;;;;;4991956;28;20038;-71
2023/08/06 09:03:17;;;;;;;3.28;2.80;;;30.40;49.20;;;;;;4991630;28;20038;-73
2023/08/06 09:05:51;;;;;;;6.10;3.30;;;30.40;49.20;;;;;;5006826;28;20034;-70
2023/08/06 09:08:20;;;;;;;5.03;3.25;;;30.40;49.40;;;;;;5005710;28;20050;-71
2023/08/06 09:10:49;;;;;;;5.18;3.15;;;30.40;49.40;;;;;;4991908;28;20031;-68
2023/08/06 09:13:16;;;;;;;6.10;2.95;;;30.30;49.50;;;;;;4991714;28;20399;-69
2023/08/06 09:15:44;;;;;;;3.40;2.70;;;30.30;49.70;;;;;;4991799;28;20049;-71
2023/08/06 09:18:11;;;;;;;4.93;2.85;;;30.40;49.80;;;;;;4991533;28;20044;-70
2023/08/06 09:20:38;;;;;;;3.70;2.65;;;30.30;50.00;;;;;;4991907;28;20117;-69
2023/08/06 09:23:09;;;;;;;6.70;3.88;;;30.30;50.10;;;;;;4990331;28;20679;-69
2023/08/06 09:25:42;;;;;;;2.88;2.63;;;30.30;50.10;;;;;;4991837;28;20049;-70
2023/08/06 09:28:09;;;;;;;3.00;2.70;;;30.30;50.30;;;;;;4991597;28;20038;-69
2023/08/06 09:30:37;;;;;;;3.50;3.05;;;30.40;50.30;;;;;;4994586;28;20521;-70
2023/08/06 09:33:08;;;;;;;4.70;3.20;;;30.50;50.40;;;;;;4995499;28;20059;-68
2023/08/06 09:35:34;;;;;;;3.60;3.10;;;30.40;50.40;;;;;;4995921;28;20027;-74
2023/08/06 09:38:19;;;;;;;3.97;2.78;;;30.40;50.50;;;;;;4995354;28;20027;-70
2023/08/06 09:40:45;;;;;;;3.88;2.70;;;30.40;50.60;;;;;;4995618;28;20064;-68
2023/08/06 09:43:12;;;;;;;3.85;3.08;;;30.30;50.50;;;;;;4995215;28;20069;-69
2023/08/06 09:45:39;;;;;;;6.18;2.90;;;30.40;50.50;;;;;;4995778;28;20058;-70
2023/08/06 09:48:09;;;;;;;6.25;3.47;;;30.40;50.60;;;;;;4995411;28;20026;-70
2023/08/06 09:50:36;;;;;;;3.42;2.95;;;30.40;51.50;;;;;;5010547;28;20058;-69
2023/08/06 09:53:07;;;;;;;5.32;3.15;;;30.40;52.00;;;;;;4995253;28;20045;-69
2023/08/06 09:55:36;;;;;;;18.38;4.45;;;30.40;52.80;;;;;;5025877;28;20422;-70
2023/08/06 09:58:02;;;;;;;4.93;3.60;;;30.40;52.40;;;;;;4995274;28;20065;-70
2023/08/06 10:00:30;;;;;;;3.67;3.20;;;30.50;53.50;;;;;;4995362;28;20046;-70
2023/08/06 10:03:00;;;;;;;3.35;2.97;;;30.50;52.20;;;;;;4993918;28;20031;-69
2023/08/06 10:05:27;;;;;;;8.15;3.33;;;30.50;53.70;;;;;;4995207;28;20026;-67
2023/08/06 10:07:53;;;;;;;7.38;3.67;;;30.70;53.70;;;;;;4994945;28;20049;-68
2023/08/06 10:10:19;;;;;;;5.07;2.85;;;31.00;58.10;;;;;;4994858;28;20042;-69
2023/08/06 10:12:50;;;;;;;3.00;2.70;;;30.90;55.80;;;;;;4995006;28;20488;-69
2023/08/06 10:15:21;;;;;;;6.25;3.22;;;30.90;54.60;;;;;;4994514;28;20041;-68
2023/08/06 10:17:50;;;;;;;2.60;2.40;;;30.80;53.70;;;;;;4994806;28;20537;-67
2023/08/06 10:20:16;;;;;;;4.47;2.92;;;30.90;53.20;;;;;;4994636;28;20045;-67
2023/08/06 10:22:46;;;;;;;4.25;2.67;;;30.80;52.80;;;;;;4993365;28;20085;-68
2023/08/06 10:25:16;;;;;;;3.35;2.97;;;30.80;52.50;;;;;;4993632;28;20062;-69
2023/08/06 10:27:48;;;;;;;3.08;2.50;;;30.70;52.20;;;;;;4994703;28;20029;-68
2023/08/06 10:30:22;;;;;;;5.55;3.22;;;30.70;52.30;;;;;;4994658;28;20046;-69
2023/08/06 10:32:50;;;;;;;4.50;2.55;;;31.30;57.20;;;;;;4994854;28;20110;-69
2023/08/06 10:35:37;;;;;;;4.82;3.28;;;31.80;56.10;;;;;;4994511;28;20109;-69
2023/08/06 10:38:03;;;;;;;5.93;3.67;;;31.90;55.60;;;;;;4994457;28;20602;-69
2023/08/06 10:40:30;;;;;;;3.70;3.30;;;31.70;51.80;;;;;;4993930;28;20035;-69
2023/08/06 10:43:03;;;;;;;2.78;2.58;;;31.70;51.40;;;;;;4993784;28;20121;-69
2023/08/06 10:45:30;;;;;;;3.22;2.92;;;31.40;48.90;;;;;;4994171;28;20042;-69
2023/08/06 10:47:57;;;;;;;7.75;3.08;;;31.30;49.00;;;;;;5011306;28;20033;-69
2023/08/06 10:50:24;;;;;;;4.60;3.50;;;31.20;48.30;;;;;;5011288;28;20573;-70
2023/08/06 10:52:51;;;;;;;4.00;2.80;;;31.20;47.70;;;;;;5011171;28;20080;-69
2023/08/06 10:55:25;;;;;;;5.10;3.28;;;31.10;47.40;;;;;;5011207;28;20042;-69
2023/08/06 10:57:52;;;;;;;4.32;2.83;;;31.00;47.00;;;;;;5010941;28;20080;-69
2023/08/06 11:00:18;;;;;;;3.47;3.10;;;31.10;47.40;;;;;;5010902;28;20069;-69
2023/08/06 11:02:46;;;;;;;5.40;3.42;;;31.20;46.50;;;;;;5010812;28;20092;-69
2023/08/06 11:05:12;;;;;;;3.40;3.10;;;31.20;52.60;;;;;;5010700;28;20030;-69
2023/08/06 11:07:39;;;;;;;3.90;3.30;;;31.40;53.50;;;;;;5010806;28;20054;-69
2023/08/06 11:10:09;;;;;;;3.88;3.47;;;31.50;54.20;;;;;;5010847;28;20040;-69
2023/08/06 11:12:36;;;;;;;3.47;2.80;;;31.30;54.80;;;;;;5010705;28;20037;-70
2023/08/06 11:15:03;;;;;;;4.40;3.22;;;31.30;50.00;;;;;;5010598;28;20041;-69
2023/08/06 11:17:33;;;;;;;3.38;2.83;;;31.30;48.60;;;;;;5010710;28;20038;-68
2023/08/06 11:20:00;;;;;;;6.03;2.78;;;31.20;47.50;;;;;;4994615;28;20038;-68
2023/08/06 11:22:27;;;;;;;6.22;3.38;;;31.00;46.70;;;;;;4993550;28;20034;-69
2023/08/06 11:24:54;;;;;;;3.88;2.83;;;31.00;46.30;;;;;;4993502;28;20038;-69
2023/08/06 11:27:20;;;;;;;3.80;2.80;;;31.10;45.90;;;;;;4992237;28;20564;-70
2023/08/06 11:29:46;;;;;;;3.13;2.50;;;31.00;45.90;;;;;;4992972;28;20477;-69
2023/08/06 11:32:12;;;;;;;4.18;2.70;;;30.90;45.20;;;;;;5007416;28;20151;-70
2023/08/06 11:34:39;;;;;;;3.58;2.20;;;31.00;45.70;;;;;;5012777;28;20409;-70
2023/08/06 11:37:06;;;;;;;2.38;2.17;;;30.90;45.00;;;;;;4993213;28;20554;-69
2023/08/06 11:39:33;;;;;;;6.05;2.63;;;31.00;44.90;;;;;;4992985;28;20030;-68
2023/08/06 11:42:03;;;;;;;3.00;2.70;;;30.80;44.20;;;;;;4993200;28;20628;-69
2023/08/06 11:44:36;;;;;;;2.88;2.38;;;30.70;43.70;;;;;;5003178;28;20046;-69
2023/08/06 11:47:05;;;;;;;3.38;3.03;;;30.70;43.70;;;;;;5012570;28;20045;-70
2023/08/06 11:49:46;;;;;;;7.15;2.67;;;30.70;43.50;;;;;;5012217;28;20049;-69
2023/08/06 11:52:24;;;;;;;3.90;2.70;;;30.60;43.70;;;;;;5011828;28;20030;-68
2023/08/06 11:55:13;;;;;;;6.63;2.40;;;30.50;43.60;;;;;;5012375;28;20347;-68
2023/08/06 11:57:43;;;;;;;4.50;2.85;;;30.50;44.10;;;;;;5012193;28;20049;-68
2023/08/06 12:00:14;;;;;;;4.22;2.45;;;30.50;44.70;;;;;;5012069;28;20395;-69
2023/08/06 12:02:46;;;;;;;3.65;2.70;;;30.40;45.20;;;;;;4972941;28;20066;-68
2023/08/06 12:05:23;;;;;;;4.40;2.70;;;30.30;45.40;;;;;;4973050;28;20047;-68
2023/08/06 12:07:55;;;;;;;3.15;2.55;;;30.40;45.60;;;;;;4972910;28;20386;-69
2023/08/06 12:10:23;;;;;;;3.03;2.53;;;30.50;45.90;;;;;;4972877;28;20031;-69
2023/08/06 12:12:50;;;;;;;7.65;2.90;;;30.40;46.10;;;;;;5003258;28;20042;-68
2023/08/06 12:15:16;;;;;;;5.68;2.60;;;30.50;46.30;;;;;;4972934;28;20034;-69
2023/08/06 12:17:42;;;;;;;4.93;2.95;;;30.40;47.40;;;;;;4980259;28;20180;-68
2023/08/06 12:20:28;;;;;;;4.25;2.53;;;30.40;47.70;;;;;;4981960;28;20046;-69
2023/08/06 12:22:57;;;;;;;2.90;2.45;;;30.30;47.70;;;;;;4970333;28;20146;-67
2023/08/06 12:25:24;;;;;;;5.47;2.45;;;30.40;47.80;;;;;;4974870;28;20070;-68
2023/08/06 12:27:50;;;;;;;2.63;2.20;;;30.20;47.90;;;;;;4975001;28;20033;-67
2023/08/06 12:30:16;;;;;;;3.70;2.17;;;30.40;48.00;;;;;;4972922;28;20039;-67
2023/08/06 12:32:43;;;;;;;6.15;2.17;;;30.30;48.10;;;;;;4972728;28;20513;-67
2023/08/06 12:35:09;;;;;;;3.08;2.70;;;30.40;48.20;;;;;;4972488;28;20027;-68
2023/08/06 12:37:35;;;;;;;5.22;2.13;;;30.30;48.40;;;;;;4972384;28;20085;-67
2023/08/06 12:40:02;;;;;;;4.38;2.88;;;30.30;48.50;;;;;;4972305;28;20109;-67
2023/08/06 12:42:28;;;;;;;4.40;2.45;;;30.50;48.50;;;;;;4977909;28;20046;-67
2023/08/06 12:44:54;;;;;;;2.78;2.53;;;30.50;48.60;;;;;;5002382;28;20145;-67
2023/08/06 12:47:20;;;;;;;4.50;1.90;;;30.40;48.80;;;;;;4972263;28;20502;-67
2023/08/06 12:49:49;;;;;;;4.78;2.42;;;30.30;48.80;;;;;;4982571;28;20475;-66